Time;durP1;ratioP1;P1;durP2;ratioP2;P2;SDS_P1;SDS_P2;PMS_P1;PMS_P2;Temp;Humidity;BMP_temperature;BMP_pressure;BME280_temperature;BME280_humidity;BME280_pressure;Samples;Min_cycle;Max_cycle;Signal;HPM_P1;HPM_P2
2021/08/18 00:01:37;;;;;;;13.10;8.47;;;;;;;;;;5139256;28;20434;-60
2021/08/18 00:04:05;;;;;;;24.77;16.30;;;;;;;;;;5140015;28;20446;-54
2021/08/18 00:06:32;;;;;;;25.13;15.60;;;;;;;;;;5139983;28;20431;-50
2021/08/18 00:09:07;;;;;;;16.73;9.40;;;;;;;;;;5140446;28;20464;-54
2021/08/18 00:11:34;;;;;;;20.87;14.57;;;;;;;;;;5139938;28;20458;-56
2021/08/18 00:14:02;;;;;;;20.90;13.90;;;;;;;;;;5139933;28;20458;-52
2021/08/18 00:16:40;;;;;;;10.60;8.90;;;;;;;;;;5140129;28;20534;-51
2021/08/18 00:19:07;;;;;;;16.43;13.33;;;;;;;;;;5122348;28;20462;-50
2021/08/18 00:21:34;;;;;;;18.33;14.17;;;;;;;;;;5140072;28;20518;-51
2021/08/18 00:24:02;;;;;;;15.33;10.07;;;;;;;;;;5139493;28;20541;-54
2021/08/18 00:26:34;;;;;;;11.30;9.80;;;;;;;;;;5140057;28;20595;-53
2021/08/18 00:29:03;;;;;;;14.57;11.03;;;;;;;;;;5139952;28;20453;-57
2021/08/18 00:31:30;;;;;;;16.53;11.23;;;;;;;;;;5139651;27;20455;-59
2021/08/18 00:34:00;;;;;;;13.90;8.70;;;;;;;;;;5139935;27;20435;-58
2021/08/18 00:36:27;;;;;;;13.40;9.40;;;;;;;;;;5139800;28;20447;-56
2021/08/18 00:39:01;;;;;;;12.60;9.00;;;;;;;;;;5138970;28;20507;-52
2021/08/18 00:41:29;;;;;;;11.33;9.07;;;;;;;;;;5139687;28;20574;-53
2021/08/18 00:43:56;;;;;;;10.40;8.17;;;;;;;;;;5139702;28;20475;-54
2021/08/18 00:49:30;;;;;;;11.73;8.10;;;;;;;;;;5137662;28;20484;-55
2021/08/18 00:51:57;;;;;;;10.07;8.70;;;;;;;;;;5139355;28;20451;-53
2021/08/18 00:57:28;;;;;;;11.07;8.40;;;;;;;;;;5137234;28;20500;-54
2021/08/18 00:59:56;;;;;;;11.73;9.23;;;;;;;;;;5139515;28;20454;-51
2021/08/18 01:02:24;;;;;;;9.03;7.80;;;;;;;;;;5118560;28;20465;-52
2021/08/18 01:04:55;;;;;;;15.70;10.50;;;;;;;;;;5118988;28;20432;-46
2021/08/18 01:10:26;;;;;;;10.23;8.17;;;;;;;;;;5118791;28;20474;-54
2021/08/18 01:12:54;;;;;;;13.20;9.70;;;;;;;;;;5124861;28;20522;-54
2021/08/18 01:15:36;;;;;;;14.47;11.13;;;;;;;;;;5139190;28;20450;-58
2021/08/18 01:18:05;;;;;;;8.77;7.47;;;;;;;;;;5139179;28;20491;-57
2021/08/18 01:20:35;;;;;;;8.97;7.17;;;;;;;;;;5138799;28;20492;-52
2021/08/18 01:23:08;;;;;;;10.30;7.73;;;;;;;;;;5138945;28;20484;-54
2021/08/18 01:25:36;;;;;;;10.07;7.70;;;;;;;;;;5139040;28;20454;-51
2021/08/18 01:28:05;;;;;;;11.67;8.50;;;;;;;;;;5139015;28;20451;-49
2021/08/18 01:30:48;;;;;;;8.70;6.87;;;;;;;;;;5121170;28;20458;-47
2021/08/18 01:33:17;;;;;;;9.57;7.80;;;;;;;;;;5138791;28;20461;-56
2021/08/18 01:35:45;;;;;;;10.30;8.57;;;;;;;;;;5138749;28;20450;-55
2021/08/18 01:38:13;;;;;;;9.40;7.33;;;;;;;;;;5138668;28;20492;-56
2021/08/18 01:40:41;;;;;;;9.90;8.20;;;;;;;;;;5139034;28;20434;-54
2021/08/18 01:43:42;;;;;;;13.03;8.23;;;;;;;;;;5139096;28;20439;-53
2021/08/18 01:46:11;;;;;;;12.60;7.63;;;;;;;;;;5139022;28;20547;-52
2021/08/18 01:48:38;;;;;;;9.47;7.23;;;;;;;;;;5138488;28;20438;-49
2021/08/18 01:51:15;;;;;;;9.20;7.60;;;;;;;;;;5138724;28;20483;-60
2021/08/18 01:53:43;;;;;;;10.10;9.03;;;;;;;;;;5138352;28;20461;-53
2021/08/18 01:56:11;;;;;;;12.00;8.83;;;;;;;;;;5138404;28;20474;-54
2021/08/18 01:58:49;;;;;;;10.67;8.67;;;;;;;;;;5138779;28;20480;-53
2021/08/18 02:01:18;;;;;;;13.57;10.30;;;;;;;;;;5138622;28;20524;-56
2021/08/18 02:03:49;;;;;;;9.17;7.97;;;;;;;;;;5137578;28;20450;-52
2021/08/18 02:06:29;;;;;;;15.43;12.83;;;;;;;;;;5137079;28;20459;-58
2021/08/18 02:08:56;;;;;;;8.80;7.90;;;;;;;;;;5137332;28;20430;-51
2021/08/18 02:11:24;;;;;;;11.90;8.80;;;;;;;;;;5137391;28;20446;-54
2021/08/18 02:14:06;;;;;;;10.80;8.13;;;;;;;;;;5137183;28;20713;-53
2021/08/18 02:16:35;;;;;;;12.57;10.23;;;;;;;;;;5119935;28;20453;-49
2021/08/18 02:19:02;;;;;;;11.87;9.60;;;;;;;;;;5137157;28;20469;-54
2021/08/18 02:21:42;;;;;;;11.67;9.23;;;;;;;;;;5136832;27;20951;-51
2021/08/18 02:24:09;;;;;;;10.40;8.67;;;;;;;;;;5137454;28;20446;-53
2021/08/18 02:26:37;;;;;;;9.57;8.57;;;;;;;;;;5137263;28;20464;-50
2021/08/18 02:29:18;;;;;;;11.43;9.63;;;;;;;;;;5137557;28;20442;-53
2021/08/18 02:31:47;;;;;;;10.80;9.10;;;;;;;;;;5136860;28;20454;-55
2021/08/18 02:34:15;;;;;;;10.93;8.97;;;;;;;;;;5137035;28;20487;-58
2021/08/18 02:37:06;;;;;;;12.73;9.73;;;;;;;;;;5136767;28;20486;-54
2021/08/18 02:39:33;;;;;;;12.00;10.80;;;;;;;;;;5136599;28;20478;-56
2021/08/18 02:42:00;;;;;;;11.17;9.93;;;;;;;;;;5136776;28;20449;-53
2021/08/18 02:44:42;;;;;;;12.00;10.17;;;;;;;;;;5137318;28;20644;-60
2021/08/18 02:47:10;;;;;;;12.33;10.03;;;;;;;;;;5136684;28;20449;-54
2021/08/18 02:49:38;;;;;;;13.80;10.27;;;;;;;;;;5136848;28;20459;-55
2021/08/18 02:52:28;;;;;;;15.90;11.03;;;;;;;;;;5136699;28;20437;-58
2021/08/18 02:54:55;;;;;;;19.07;12.73;;;;;;;;;;5136933;28;20442;-54
2021/08/18 02:57:22;;;;;;;14.80;12.03;;;;;;;;;;5136260;28;20516;-54
2021/08/18 02:59:52;;;;;;;11.67;10.20;;;;;;;;;;5136765;28;20481;-56
2021/08/18 03:02:22;;;;;;;15.00;12.30;;;;;;;;;;5138716;28;20458;-56
2021/08/18 03:05:20;;;;;;;11.80;9.50;;;;;;;;;;5140539;28;20433;-52
2021/08/18 03:07:48;;;;;;;11.03;9.27;;;;;;;;;;5138204;28;20485;-55
2021/08/18 03:10:15;;;;;;;10.80;9.70;;;;;;;;;;5140010;28;20467;-53
2021/08/18 03:13:06;;;;;;;14.33;10.47;;;;;;;;;;5139839;28;20450;-55
2021/08/18 03:15:41;;;;;;;11.70;10.00;;;;;;;;;;5139799;28;20451;-55
2021/08/18 03:18:10;;;;;;;11.57;9.13;;;;;;;;;;5140081;28;20509;-60
2021/08/18 03:20:48;;;;;;;12.57;10.90;;;;;;;;;;5140682;28;20442;-56
2021/08/18 03:23:15;;;;;;;10.87;9.50;;;;;;;;;;5129607;28;20524;-56
2021/08/18 03:25:42;;;;;;;12.00;9.73;;;;;;;;;;5140032;28;20438;-54
2021/08/18 03:31:24;;;;;;;13.53;10.73;;;;;;;;;;5139929;28;20479;-50
2021/08/18 03:33:54;;;;;;;10.00;8.87;;;;;;;;;;5139733;28;20754;-58
2021/08/18 03:36:27;;;;;;;11.37;9.87;;;;;;;;;;5139866;28;20488;-55
2021/08/18 03:38:55;;;;;;;10.97;9.80;;;;;;;;;;5139599;28;20505;-53
2021/08/18 03:41:22;;;;;;;16.97;10.10;;;;;;;;;;5139039;27;20465;-59
2021/08/18 03:44:18;;;;;;;10.57;9.47;;;;;;;;;;5139432;28;20454;-61
2021/08/18 03:46:45;;;;;;;13.53;8.83;;;;;;;;;;5136888;27;20480;-54
2021/08/18 03:49:14;;;;;;;10.40;9.00;;;;;;;;;;5129431;28;20458;-56
2021/08/18 03:51:57;;;;;;;12.30;9.80;;;;;;;;;;5134533;28;20483;-61
2021/08/18 03:54:25;;;;;;;9.83;8.53;;;;;;;;;;5137616;28;20511;-57
2021/08/18 03:56:52;;;;;;;10.07;9.07;;;;;;;;;;5138942;28;20470;-58
2021/08/18 03:59:30;;;;;;;10.80;9.47;;;;;;;;;;5139421;28;20460;-56
2021/08/18 04:02:04;;;;;;;11.47;9.63;;;;;;;;;;5138612;27;20464;-53
2021/08/18 04:04:36;;;;;;;11.83;10.10;;;;;;;;;;5138793;28;20453;-57
2021/08/18 04:07:07;;;;;;;13.07;10.43;;;;;;;;;;5137776;28;20435;-56
2021/08/18 04:09:38;;;;;;;11.17;9.33;;;;;;;;;;5139101;28;20458;-59
2021/08/18 04:12:08;;;;;;;13.47;10.70;;;;;;;;;;5120216;27;20464;-58
2021/08/18 04:14:35;;;;;;;10.63;9.53;;;;;;;;;;5138432;28;20443;-53
2021/08/18 04:17:03;;;;;;;13.30;10.93;;;;;;;;;;5138961;27;20482;-57
2021/08/18 04:19:31;;;;;;;11.03;8.83;;;;;;;;;;5138535;27;20480;-56
2021/08/18 04:22:18;;;;;;;14.23;9.80;;;;;;;;;;5138530;27;20477;-61
2021/08/18 04:24:46;;;;;;;10.60;9.37;;;;;;;;;;5138322;28;20452;-55
2021/08/18 04:27:13;;;;;;;11.40;10.20;;;;;;;;;;5138384;28;20466;-55
2021/08/18 04:29:40;;;;;;;11.00;8.63;;;;;;;;;;5138308;28;20461;-53
2021/08/18 04:32:08;;;;;;;9.97;8.57;;;;;;;;;;5138185;28;20460;-56
2021/08/18 04:34:45;;;;;;;9.77;8.03;;;;;;;;;;5137911;28;20551;-57
2021/08/18 04:37:13;;;;;;;9.60;8.53;;;;;;;;;;5137952;28;20500;-58
2021/08/18 04:39:42;;;;;;;10.60;8.10;;;;;;;;;;5137497;28;20692;-54
2021/08/18 04:42:12;;;;;;;11.80;8.77;;;;;;;;;;5137045;28;20534;-56
2021/08/18 04:44:39;;;;;;;10.63;8.83;;;;;;;;;;5138575;28;20561;-51
2021/08/18 04:47:07;;;;;;;10.20;8.23;;;;;;;;;;5137391;28;20457;-56
2021/08/18 04:49:53;;;;;;;10.97;9.87;;;;;;;;;;5137616;28;20458;-57
2021/08/18 04:52:20;;;;;;;11.90;9.63;;;;;;;;;;5137089;28;20523;-56
2021/08/18 04:54:49;;;;;;;10.30;9.30;;;;;;;;;;5137325;28;20501;-59
2021/08/18 04:57:27;;;;;;;9.83;8.07;;;;;;;;;;5137643;28;20499;-52
2021/08/18 04:59:58;;;;;;;12.20;8.27;;;;;;;;;;5127978;28;20510;-57
2021/08/18 05:02:27;;;;;;;10.13;8.90;;;;;;;;;;5136061;28;20437;-54
2021/08/18 05:05:11;;;;;;;10.53;9.43;;;;;;;;;;5137589;28;20438;-56
2021/08/18 05:07:39;;;;;;;69.77;40.30;;;;;;;;;;5120777;28;20449;-56
2021/08/18 05:10:11;;;;;;;15.97;12.10;;;;;;;;;;5137956;28;20446;-60
2021/08/18 05:12:40;;;;;;;9.97;8.83;;;;;;;;;;5137690;28;20458;-53
2021/08/18 05:15:08;;;;;;;9.70;8.70;;;;;;;;;;5134202;28;20439;-55
2021/08/18 05:17:35;;;;;;;10.00;8.03;;;;;;;;;;5116973;28;20537;-59
2021/08/18 05:20:06;;;;;;;12.53;10.13;;;;;;;;;;5117206;28;20443;-56
2021/08/18 05:22:35;;;;;;;10.03;9.00;;;;;;;;;;5136885;28;20438;-57
2021/08/18 05:25:35;;;;;;;10.57;8.57;;;;;;;;;;5136496;28;20586;-54
2021/08/18 05:28:22;;;;;;;11.40;8.30;;;;;;;;;;5132149;28;20509;-59
2021/08/18 05:34:21;;;;;;;12.13;8.83;;;;;;;;;;5135957;28;20446;-56
2021/08/18 05:36:50;;;;;;;12.77;10.40;;;;;;;;;;5136253;28;20434;-54
2021/08/18 05:39:17;;;;;;;11.73;10.27;;;;;;;;;;5136481;28;20581;-56
2021/08/18 05:41:46;;;;;;;11.43;9.23;;;;;;;;;;5127279;27;20461;-54
2021/08/18 05:44:14;;;;;;;12.77;10.77;;;;;;;;;;5135923;27;20450;-55
2021/08/18 05:46:58;;;;;;;13.53;10.30;;;;;;;;;;5136968;28;20450;-55
2021/08/18 05:49:41;;;;;;;12.87;10.23;;;;;;;;;;5136170;28;20517;-55
2021/08/18 05:52:09;;;;;;;19.27;11.00;;;;;;;;;;5135794;28;20534;-55
2021/08/18 05:54:38;;;;;;;14.97;12.47;;;;;;;;;;5135203;28;20512;-55
2021/08/18 05:57:14;;;;;;;14.07;11.40;;;;;;;;;;5136387;27;20468;-53
2021/08/18 06:02:28;;;;;;;15.07;12.97;;;;;;;;;;5133862;28;20456;-55
2021/08/18 06:04:58;;;;;;;16.87;12.03;;;;;;;;;;5135665;28;20733;-55
2021/08/18 06:07:37;;;;;;;15.13;12.23;;;;;;;;;;5135768;28;20502;-56
2021/08/18 06:10:04;;;;;;;14.97;13.13;;;;;;;;;;5135735;28;20438;-54
2021/08/18 06:12:51;;;;;;;13.97;11.67;;;;;;;;;;5132536;28;20501;-54
2021/08/18 06:18:05;;;;;;;17.63;14.67;;;;;;;;;;5134288;28;20458;-54
2021/08/18 06:20:32;;;;;;;18.03;13.80;;;;;;;;;;5136357;28;20482;-53
2021/08/18 06:23:12;;;;;;;16.17;13.00;;;;;;;;;;5135844;28;20481;-52
2021/08/18 06:25:40;;;;;;;14.70;13.00;;;;;;;;;;5136157;28;20446;-53
2021/08/18 06:28:12;;;;;;;18.40;14.17;;;;;;;;;;5134427;28;20498;-53
2021/08/18 06:31:05;;;;;;;17.37;13.63;;;;;;;;;;5116910;28;20503;-54
2021/08/18 06:33:35;;;;;;;18.20;14.70;;;;;;;;;;5135130;28;20925;-55
2021/08/18 06:36:03;;;;;;;14.97;12.93;;;;;;;;;;5118866;28;20455;-52
2021/08/18 06:38:58;;;;;;;17.37;13.60;;;;;;;;;;5138717;27;20481;-53
2021/08/18 06:41:25;;;;;;;19.57;13.70;;;;;;;;;;5140224;27;20514;-57
2021/08/18 06:43:53;;;;;;;16.40;13.80;;;;;;;;;;5140036;27;20458;-60
2021/08/18 06:46:21;;;;;;;15.97;14.30;;;;;;;;;;5139579;28;20450;-56
2021/08/18 06:48:53;;;;;;;17.43;14.57;;;;;;;;;;5142265;27;20438;-56
2021/08/18 06:51:21;;;;;;;17.40;14.00;;;;;;;;;;5140013;28;20450;-56
2021/08/18 06:53:53;;;;;;;17.73;12.80;;;;;;;;;;5139337;28;20496;-54
2021/08/18 06:56:20;;;;;;;16.17;13.53;;;;;;;;;;5139476;27;20446;-54
2021/08/18 06:59:13;;;;;;;15.37;12.90;;;;;;;;;;5138672;28;20482;-54
2021/08/18 07:01:45;;;;;;;14.37;12.60;;;;;;;;;;5138005;28;20519;-56
2021/08/18 07:04:16;;;;;;;19.60;12.63;;;;;;;;;;5139356;27;20521;-56
2021/08/18 07:06:48;;;;;;;16.90;13.53;;;;;;;;;;5130571;27;20431;-54
2021/08/18 07:09:15;;;;;;;13.37;11.13;;;;;;;;;;5123215;27;20455;-54
2021/08/18 07:11:43;;;;;;;12.27;11.00;;;;;;;;;;5118469;28;20450;-50
2021/08/18 07:14:21;;;;;;;14.83;11.80;;;;;;;;;;5118971;28;20510;-50
2021/08/18 07:16:49;;;;;;;13.77;11.80;;;;;;;;;;5119343;28;20458;-55
2021/08/18 07:19:16;;;;;;;18.53;12.57;;;;;;;;;;5118047;28;20489;-53
2021/08/18 07:21:56;;;;;;;11.80;10.30;;;;;;;;;;5119165;28;20435;-54
2021/08/18 07:24:31;;;;;;;11.30;9.63;;;;;;;;;;5138190;28;20442;-58
2021/08/18 07:26:58;;;;;;;19.23;10.37;;;;;;;;;;5138321;28;20491;-58
2021/08/18 07:29:48;;;;;;;15.80;12.37;;;;;;;;;;5138807;28;20476;-57
2021/08/18 07:32:16;;;;;;;12.83;9.60;;;;;;;;;;5138139;28;20450;-52
2021/08/18 07:34:43;;;;;;;13.13;9.00;;;;;;;;;;5138034;28;20465;-57
2021/08/18 07:37:17;;;;;;;10.10;9.00;;;;;;;;;;5138877;28;20450;-59
2021/08/18 07:39:45;;;;;;;10.73;7.70;;;;;;;;;;5138248;27;20490;-52
2021/08/18 07:42:14;;;;;;;8.93;7.53;;;;;;;;;;5137777;28;20445;-60
2021/08/18 07:44:55;;;;;;;12.60;9.17;;;;;;;;;;5138358;27;20457;-55
2021/08/18 07:47:22;;;;;;;13.80;8.30;;;;;;;;;;5137934;27;20454;-56
2021/08/18 07:49:50;;;;;;;12.40;9.13;;;;;;;;;;5138296;27;20442;-51
2021/08/18 07:52:45;;;;;;;7.90;6.93;;;;;;;;;;5138290;28;20446;-53
2021/08/18 07:55:13;;;;;;;8.17;7.17;;;;;;;;;;5135949;28;20501;-62
2021/08/18 07:57:40;;;;;;;11.50;8.40;;;;;;;;;;5138662;27;20476;-57
2021/08/18 08:00:44;;;;;;;9.63;8.63;;;;;;;;;;5137976;28;20463;-51
2021/08/18 08:03:13;;;;;;;13.70;10.63;;;;;;;;;;5136466;27;20482;-54
2021/08/18 08:05:40;;;;;;;11.07;9.97;;;;;;;;;;5138904;28;20454;-59
2021/08/18 08:08:08;;;;;;;13.03;10.40;;;;;;;;;;5139254;28;20442;-56
2021/08/18 08:10:35;;;;;;;12.77;10.87;;;;;;;;;;5139501;28;20431;-53
2021/08/18 08:13:19;;;;;;;12.03;10.73;;;;;;;;;;5139329;28;20446;-58
2021/08/18 08:15:49;;;;;;;12.37;10.60;;;;;;;;;;5138972;28;20507;-54
2021/08/18 08:18:23;;;;;;;19.80;12.57;;;;;;;;;;5139011;28;20474;-58
2021/08/18 08:20:50;;;;;;;14.93;11.03;;;;;;;;;;5125625;28;20484;-50
2021/08/18 08:23:21;;;;;;;13.27;10.63;;;;;;;;;;5138941;28;20453;-55
2021/08/18 08:25:55;;;;;;;15.20;10.87;;;;;;;;;;5138784;28;20431;-52
2021/08/18 08:28:23;;;;;;;12.50;10.93;;;;;;;;;;5138222;28;20451;-58
2021/08/18 08:30:51;;;;;;;12.33;11.03;;;;;;;;;;5127730;28;20439;-52
2021/08/18 08:33:21;;;;;;;10.43;8.67;;;;;;;;;;5131073;28;20459;-52
2021/08/18 08:35:48;;;;;;;15.33;11.03;;;;;;;;;;5138151;28;20451;-54
2021/08/18 08:38:17;;;;;;;14.87;12.67;;;;;;;;;;5137877;28;20482;-53
2021/08/18 08:40:46;;;;;;;11.70;10.30;;;;;;;;;;5138438;28;20458;-49
2021/08/18 08:43:15;;;;;;;12.93;10.50;;;;;;;;;;5141271;27;20449;-53
2021/08/18 08:45:53;;;;;;;12.03;9.20;;;;;;;;;;5129955;28;20509;-55
2021/08/18 08:48:23;;;;;;;11.90;8.90;;;;;;;;;;5138388;28;20454;-56
2021/08/18 08:50:51;;;;;;;10.37;8.60;;;;;;;;;;5135530;28;20462;-59
2021/08/18 08:53:18;;;;;;;10.53;8.73;;;;;;;;;;5138165;28;20849;-59
2021/08/18 08:55:50;;;;;;;8.33;7.40;;;;;;;;;;5138067;28;20430;-57
2021/08/18 08:58:17;;;;;;;9.80;7.47;;;;;;;;;;5138088;28;20580;-54
2021/08/18 09:00:45;;;;;;;10.47;8.40;;;;;;;;;;5137956;28;20442;-61
2021/08/18 09:03:16;;;;;;;8.43;7.63;;;;;;;;;;5138050;28;20520;-57
2021/08/18 09:05:53;;;;;;;8.63;7.20;;;;;;;;;;5138079;28;20447;-57
2021/08/18 09:08:27;;;;;;;7.83;6.73;;;;;;;;;;5137399;28;20525;-56
2021/08/18 09:11:08;;;;;;;7.30;5.53;;;;;;;;;;5135926;28;20464;-57
2021/08/18 09:13:41;;;;;;;9.43;6.17;;;;;;;;;;5138236;28;20464;-53
2021/08/18 09:16:08;;;;;;;6.40;5.40;;;;;;;;;;5138187;27;20479;-58
2021/08/18 09:18:49;;;;;;;4.90;3.60;;;;;;;;;;5137295;28;20489;-56
2021/08/18 09:21:37;;;;;;;3.47;2.97;;;;;;;;;;5128492;28;20447;-59
2021/08/18 09:24:21;;;;;;;4.97;4.03;;;;;;;;;;5128458;28;20441;-60
2021/08/18 09:26:50;;;;;;;4.47;2.67;;;;;;;;;;5137335;28;20491;-56
2021/08/18 09:29:26;;;;;;;4.43;3.00;;;;;;;;;;5138095;28;20472;-50
2021/08/18 09:31:53;;;;;;;4.13;3.60;;;;;;;;;;5137447;28;20423;-57
2021/08/18 09:34:31;;;;;;;3.50;2.70;;;;;;;;;;5137892;28;20438;-55
2021/08/18 09:37:23;;;;;;;4.83;4.00;;;;;;;;;;5131592;28;20446;-53
2021/08/18 09:40:31;;;;;;;4.63;3.17;;;;;;;;;;5152611;27;20488;-59
2021/08/18 09:43:08;;;;;;;5.60;2.77;;;;;;;;;;5156905;27;20485;-53
2021/08/18 09:45:38;;;;;;;6.53;2.83;;;;;;;;;;5143077;27;20513;-55
2021/08/18 09:48:07;;;;;;;3.67;2.30;;;;;;;;;;5137232;28;20484;-56
2021/08/18 09:50:55;;;;;;;4.40;3.20;;;;;;;;;;5137418;27;20446;-50
2021/08/18 09:53:25;;;;;;;4.80;2.73;;;;;;;;;;5130795;28;20446;-56
2021/08/18 09:55:58;;;;;;;6.10;3.33;;;;;;;;;;5136661;28;20583;-54
2021/08/18 09:58:49;;;;;;;4.20;2.57;;;;;;;;;;5132514;28;20442;-57
2021/08/18 10:01:20;;;;;;;4.60;2.20;;;;;;;;;;5119177;28;20458;-52
2021/08/18 10:03:49;;;;;;;4.47;1.90;;;;;;;;;;5135844;28;20466;-56
2021/08/18 10:06:18;;;;;;;3.47;2.27;;;;;;;;;;5136295;28;20445;-53
2021/08/18 10:08:57;;;;;;;5.37;2.70;;;;;;;;;;5136406;28;20498;-55
2021/08/18 10:11:30;;;;;;;5.07;2.73;;;;;;;;;;5137471;28;20456;-58
2021/08/18 10:13:58;;;;;;;4.80;3.03;;;;;;;;;;5139652;28;20822;-61
2021/08/18 10:16:50;;;;;;;5.43;3.23;;;;;;;;;;5147542;27;20459;-59
2021/08/18 10:19:18;;;;;;;3.70;3.00;;;;;;;;;;5144231;27;20482;-56
2021/08/18 10:21:45;;;;;;;5.20;3.73;;;;;;;;;;5139796;28;20453;-54
2021/08/18 10:27:34;;;;;;;5.73;4.27;;;;;;;;;;5142902;27;20495;-55
2021/08/18 10:30:22;;;;;;;3.80;3.40;;;;;;;;;;5129033;28;20431;-55
2021/08/18 10:32:51;;;;;;;6.33;4.00;;;;;;;;;;5133863;28;20419;-53
2021/08/18 10:35:42;;;;;;;5.30;4.37;;;;;;;;;;5119641;28;20572;-56
2021/08/18 10:41:35;;;;;;;5.50;3.57;;;;;;;;;;5121997;28;20844;-58
2021/08/18 10:44:04;;;;;;;4.83;3.43;;;;;;;;;;5121586;28;20470;-56
2021/08/18 10:46:58;;;;;;;4.30;3.50;;;;;;;;;;5111960;28;20502;-51
2021/08/18 10:49:30;;;;;;;7.80;3.70;;;;;;;;;;5126416;28;20481;-55
2021/08/18 10:54:48;;;;;;;7.67;4.13;;;;;;;;;;5124210;28;20635;-55
2021/08/18 10:57:37;;;;;;;5.50;3.80;;;;;;;;;;5133263;28;20497;-52
2021/08/18 11:00:14;;;;;;;5.57;3.13;;;;;;;;;;5133298;28;20410;-59
2021/08/18 11:02:56;;;;;;;5.30;3.63;;;;;;;;;;5133244;28;20473;-60
2021/08/18 11:05:51;;;;;;;3.93;3.07;;;;;;;;;;5132293;28;20649;-58
2021/08/18 11:08:23;;;;;;;5.47;3.20;;;;;;;;;;5132462;28;20438;-54
2021/08/18 11:11:18;;;;;;;4.57;4.10;;;;;;;;;;5105753;28;20434;-55
2021/08/18 11:14:08;;;;;;;4.87;3.30;;;;;;;;;;5132591;28;20533;-57
2021/08/18 11:19:59;;;;;;;4.90;3.90;;;;;;;;;;5132120;28;20455;-57
2021/08/18 11:22:30;;;;;;;5.47;3.53;;;;;;;;;;5131201;28;20470;-55
2021/08/18 11:25:02;;;;;;;5.20;3.63;;;;;;;;;;5127949;28;20477;-57
2021/08/18 11:27:44;;;;;;;7.27;3.50;;;;;;;;;;5111932;28;20424;-51
2021/08/18 11:33:33;;;;;;;6.13;3.57;;;;;;;;;;5132477;28;20398;-55
2021/08/18 11:36:20;;;;;;;5.63;2.97;;;;;;;;;;5125712;28;20475;-50
2021/08/18 11:39:15;;;;;;;5.90;2.90;;;;;;;;;;5117553;28;20449;-54
2021/08/18 11:41:58;;;;;;;5.37;3.50;;;;;;;;;;5118429;28;20431;-56
2021/08/18 11:44:31;;;;;;;5.27;3.50;;;;;;;;;;5104076;28;20511;-53
2021/08/18 11:47:07;;;;;;;13.03;11.70;;;;;;;;;;5118013;28;20475;-58
2021/08/18 11:49:38;;;;;;;3.70;2.70;;;;;;;;;;5117311;28;20455;-58
2021/08/18 11:52:09;;;;;;;3.67;2.80;;;;;;;;;;5110821;28;20553;-56
2021/08/18 11:54:36;;;;;;;7.20;3.67;;;;;;;;;;5096934;28;20447;-52
2021/08/18 11:57:22;;;;;;;10.23;4.47;;;;;;;;;;5097582;28;20444;-56
2021/08/18 11:59:50;;;;;;;5.00;3.50;;;;;;;;;;5096865;28;20444;-55
2021/08/18 12:02:23;;;;;;;4.40;3.20;;;;;;;;;;5096980;28;20464;-51
2021/08/18 12:05:04;;;;;;;3.60;3.20;;;;;;;;;;5097945;28;20522;-52
2021/08/18 12:07:34;;;;;;;5.47;3.97;;;;;;;;;;5095116;28;20478;-50
2021/08/18 12:10:18;;;;;;;6.17;5.40;;;;;;;;;;5097573;28;20444;-56
2021/08/18 12:13:04;;;;;;;7.40;5.83;;;;;;;;;;5097381;28;20435;-55
2021/08/18 12:18:31;;;;;;;8.83;6.93;;;;;;;;;;5107520;28;20462;-53
2021/08/18 12:21:15;;;;;;;8.90;8.00;;;;;;;;;;5116572;28;20455;-52
2021/08/18 12:26:30;;;;;;;6.57;5.77;;;;;;;;;;5077571;28;20500;-56
2021/08/18 12:29:02;;;;;;;6.87;6.00;;;;;;;;;;5100274;28;20455;-52
2021/08/18 12:31:53;;;;;;;9.30;5.93;;;;;;;;;;5096717;28;20450;-54
2021/08/18 12:34:34;;;;;;;6.93;5.50;;;;;;;;;;5088413;28;20480;-53
2021/08/18 12:37:24;;;;;;;6.83;5.67;;;;;;;;;;5085783;28;20494;-55
2021/08/18 12:39:58;;;;;;;6.90;6.17;;;;;;;;;;5080764;28;20452;-58
2021/08/18 12:42:31;;;;;;;6.00;5.30;;;;;;;;;;5088710;28;20447;-57
2021/08/18 12:48:17;;;;;;;5.83;4.97;;;;;;;;;;5115007;28;20508;-61
2021/08/18 12:51:24;;;;;;;9.13;6.10;;;;;;;;;;5118340;28;20455;-56
2021/08/18 12:53:57;;;;;;;8.67;5.80;;;;;;;;;;5115645;28;20455;-57
2021/08/18 12:59:48;;;;;;;9.03;5.37;;;;;;;;;;5100352;28;20443;-51
2021/08/18 13:02:21;;;;;;;9.90;6.00;;;;;;;;;;5116022;28;20443;-57
2021/08/18 13:05:09;;;;;;;7.37;6.07;;;;;;;;;;5117022;28;20874;-58
2021/08/18 13:07:37;;;;;;;7.83;6.13;;;;;;;;;;5108406;28;20537;-55
2021/08/18 13:10:10;;;;;;;6.67;5.43;;;;;;;;;;5115635;28;20458;-58
2021/08/18 13:12:38;;;;;;;6.93;4.70;;;;;;;;;;5116636;28;20435;-55
2021/08/18 13:15:13;;;;;;;6.20;4.43;;;;;;;;;;5116683;28;20431;-59
2021/08/18 13:17:41;;;;;;;13.80;6.10;;;;;;;;;;5113952;28;20431;-57
2021/08/18 13:20:09;;;;;;;5.83;4.80;;;;;;;;;;5116590;28;20485;-56
2021/08/18 13:22:55;;;;;;;6.70;5.10;;;;;;;;;;5117129;28;20481;-58
2021/08/18 13:25:31;;;;;;;7.17;4.93;;;;;;;;;;5099022;28;20479;-54
2021/08/18 13:28:02;;;;;;;7.07;4.37;;;;;;;;;;5075244;28;20456;-52
2021/08/18 13:30:42;;;;;;;8.03;6.00;;;;;;;;;;5086656;28;20507;-60
2021/08/18 13:33:10;;;;;;;6.40;4.00;;;;;;;;;;5096282;28;20460;-57
2021/08/18 13:35:54;;;;;;;7.50;5.13;;;;;;;;;;5094266;28;20463;-58
2021/08/18 13:38:23;;;;;;;6.73;4.43;;;;;;;;;;5096447;28;20436;-53
2021/08/18 13:40:56;;;;;;;11.60;9.30;;;;;;;;;;5096467;28;20452;-56
2021/08/18 13:43:45;;;;;;;6.57;4.53;;;;;;;;;;5096829;28;20491;-54
2021/08/18 13:46:13;;;;;;;4.67;3.70;;;;;;;;;;5096823;28;20471;-57
2021/08/18 13:48:40;;;;;;;6.87;5.00;;;;;;;;;;5096263;28;20493;-59
2021/08/18 13:51:07;;;;;;;7.47;5.03;;;;;;;;;;5084707;28;20461;-58
2021/08/18 13:53:37;;;;;;;9.40;5.63;;;;;;;;;;5105208;28;20439;-50
2021/08/18 13:56:16;;;;;;;7.73;4.80;;;;;;;;;;5109557;28;20486;-56
2021/08/18 13:58:43;;;;;;;9.37;6.07;;;;;;;;;;5095648;28;20474;-57
2021/08/18 14:01:13;;;;;;;9.63;6.90;;;;;;;;;;5094999;28;20471;-55
2021/08/18 14:03:46;;;;;;;6.97;5.10;;;;;;;;;;5095279;28;20561;-55
2021/08/18 14:06:17;;;;;;;9.23;7.30;;;;;;;;;;5091142;28;20488;-55
2021/08/18 14:08:51;;;;;;;5.90;4.90;;;;;;;;;;5074908;28;20493;-57
2021/08/18 14:11:29;;;;;;;8.07;6.77;;;;;;;;;;5082156;28;20440;-56
2021/08/18 14:13:57;;;;;;;9.10;6.60;;;;;;;;;;5095090;28;20497;-63
2021/08/18 14:16:31;;;;;;;8.57;7.27;;;;;;;;;;5099685;28;20440;-56
2021/08/18 14:19:00;;;;;;;10.53;6.37;;;;;;;;;;5094082;28;20450;-49
2021/08/18 14:21:35;;;;;;;9.80;7.20;;;;;;;;;;5087347;28;20449;-55
2021/08/18 14:24:16;;;;;;;8.80;7.03;;;;;;;;;;5073513;28;20488;-54
2021/08/18 14:26:56;;;;;;;17.00;7.47;;;;;;;;;;5084587;28;20479;-59
2021/08/18 14:29:32;;;;;;;10.63;7.17;;;;;;;;;;5094400;28;20475;-58
2021/08/18 14:32:02;;;;;;;8.27;6.10;;;;;;;;;;5095144;28;20436;-56
2021/08/18 14:34:33;;;;;;;9.07;7.70;;;;;;;;;;5095518;28;20464;-57
2021/08/18 14:37:01;;;;;;;11.40;7.63;;;;;;;;;;5094907;28;20432;-52
2021/08/18 14:39:33;;;;;;;13.10;8.90;;;;;;;;;;5095451;28;20452;-56
2021/08/18 14:42:08;;;;;;;9.37;7.50;;;;;;;;;;5094688;28;20448;-55
2021/08/18 14:44:37;;;;;;;7.30;6.53;;;;;;;;;;5103517;28;20440;-56
2021/08/18 14:47:13;;;;;;;10.27;6.70;;;;;;;;;;5095034;28;20459;-59
2021/08/18 14:49:42;;;;;;;9.90;6.97;;;;;;;;;;5092661;28;20440;-55
2021/08/18 14:52:11;;;;;;;9.87;7.30;;;;;;;;;;5094881;28;20463;-54
2021/08/18 14:54:40;;;;;;;10.80;7.90;;;;;;;;;;5095836;28;20532;-52
2021/08/18 14:57:17;;;;;;;10.33;7.07;;;;;;;;;;5095487;28;20436;-49
2021/08/18 15:00:01;;;;;;;13.67;8.70;;;;;;;;;;5085100;28;20452;-52
2021/08/18 15:02:31;;;;;;;13.50;8.60;;;;;;;;;;5099543;28;20789;-54
2021/08/18 15:05:03;;;;;;;15.83;8.23;;;;;;;;;;5096271;28;20456;-54
2021/08/18 15:07:31;;;;;;;8.73;5.80;;;;;;;;;;5094398;28;20545;-55
2021/08/18 15:10:07;;;;;;;8.53;7.33;;;;;;;;;;5093150;28;20451;-53
2021/08/18 15:15:43;;;;;;;8.20;7.07;;;;;;;;;;5083357;28;20499;-55
2021/08/18 15:18:19;;;;;;;9.80;8.47;;;;;;;;;;5098757;28;20448;-57
2021/08/18 15:20:56;;;;;;;9.70;7.83;;;;;;;;;;5084993;28;20432;-58
2021/08/18 15:23:37;;;;;;;13.70;11.60;;;;;;;;;;5078383;28;20460;-55
2021/08/18 15:26:29;;;;;;;10.17;7.70;;;;;;;;;;5097014;28;20464;-56
2021/08/18 15:28:56;;;;;;;15.40;8.17;;;;;;;;;;5097810;28;20467;-52
2021/08/18 15:31:44;;;;;;;8.60;7.40;;;;;;;;;;5082640;28;20548;-52
2021/08/18 15:37:28;;;;;;;11.33;8.67;;;;;;;;;;5109078;28;20443;-58
2021/08/18 15:40:04;;;;;;;10.90;7.77;;;;;;;;;;5099131;28;20521;-59
2021/08/18 15:42:31;;;;;;;10.07;7.53;;;;;;;;;;5098449;28;20446;-51
2021/08/18 15:44:58;;;;;;;10.50;7.60;;;;;;;;;;5098748;28;20456;-51
2021/08/18 15:47:49;;;;;;;10.83;7.33;;;;;;;;;;5097481;28;20587;-54
2021/08/18 15:50:17;;;;;;;10.47;8.30;;;;;;;;;;5096016;28;20546;-50
2021/08/18 15:52:50;;;;;;;9.83;7.33;;;;;;;;;;5098583;28;20464;-59
2021/08/18 15:58:22;;;;;;;7.97;6.90;;;;;;;;;;5096382;28;20474;-59
2021/08/18 16:00:50;;;;;;;8.67;6.60;;;;;;;;;;5087951;28;20448;-54
2021/08/18 16:03:21;;;;;;;7.23;6.10;;;;;;;;;;5098595;28;20460;-59
2021/08/18 16:05:48;;;;;;;11.93;10.20;;;;;;;;;;5089417;28;20911;-52
2021/08/18 16:08:20;;;;;;;10.57;8.43;;;;;;;;;;5098202;28;20561;-53